createdAt,value
2022-11-04T00:01:24.518Z,99990.25
2022-11-04T00:03:56.477Z,99984.41
2022-11-04T00:06:28.420Z,99981.94
2022-11-04T00:09:00.796Z,99975.97
2022-11-04T00:11:51.250Z,99978.44
2022-11-04T00:14:23.775Z,99982.09
2022-11-04T00:17:14.628Z,99975.06
2022-11-04T00:20:07.999Z,99973.28
2022-11-04T00:23:00.934Z,99966.28
2022-11-04T00:25:51.335Z,99969.63
2022-11-04T00:28:41.824Z,99963.69
2022-11-04T00:31:32.659Z,99953.06
2022-11-04T00:34:04.619Z,99934.66
2022-11-04T00:36:36.557Z,99940.56
2022-11-04T00:39:08.489Z,99951.25
2022-11-04T00:41:40.520Z,99949.44
2022-11-04T00:44:12.439Z,99958.22
2022-11-04T00:46:44.455Z,99965.34
2022-11-04T00:49:16.429Z,99979.41
2022-11-04T00:51:48.358Z,99990.66
2022-11-04T00:54:20.286Z,99975.78
2022-11-04T00:56:53.852Z,99983.34
2022-11-04T00:59:25.901Z,99977.91
2022-11-04T01:01:57.984Z,99988.34
2022-11-04T01:04:30.498Z,99974.47
2022-11-04T01:07:03.654Z,99987.59
2022-11-04T01:09:35.764Z,99998.16
2022-11-04T01:12:07.713Z,99998.16
2022-11-04T01:14:39.635Z,99994.44
2022-11-04T01:17:11.588Z,99991.75
2022-11-04T01:19:43.717Z,99998.00
2022-11-04T01:22:15.711Z,99992.88
2022-11-04T01:24:47.664Z,99983.88
2022-11-04T01:27:19.610Z,99949.81
2022-11-04T01:29:51.546Z,99938.25
2022-11-04T01:32:23.535Z,99956.72
2022-11-04T01:34:55.419Z,99963.56
2022-11-04T01:37:27.472Z,99962.59
2022-11-04T01:39:59.751Z,99955.53
2022-11-04T01:42:31.670Z,99969.44
2022-11-04T01:45:03.811Z,99976.41
2022-11-04T01:47:53.948Z,99975.09
2022-11-04T01:50:30.434Z,99970.72
2022-11-04T01:53:17.228Z,99963.75
2022-11-04T01:55:56.797Z,99940.94
2022-11-04T01:58:32.784Z,99953.06
2022-11-04T02:01:04.751Z,99962.06
2022-11-04T02:03:54.378Z,99967.50
2022-11-04T02:06:26.305Z,99949.16
2022-11-04T02:08:58.303Z,99955.84
2022-11-04T02:12:02.333Z,99941.03
2022-11-04T02:14:35.522Z,99944.72
2022-11-04T02:17:19.614Z,99954.38
2022-11-04T02:20:12.500Z,99957.78
2022-11-04T02:23:15.109Z,99962.47
2022-11-04T02:26:12.106Z,99957.44
2022-11-04T02:29:16.381Z,99958.22
2022-11-04T02:32:42.875Z,99962.41
2022-11-04T02:35:30.002Z,99972.25
2022-11-04T02:38:12.759Z,99975.78
2022-11-04T02:41:12.656Z,99980.16
2022-11-04T02:44:33.043Z,99986.28
2022-11-04T02:47:07.916Z,99991.34
2022-11-04T02:49:53.024Z,99999.22
2022-11-04T02:52:33.323Z,100009.53
2022-11-04T02:55:13.344Z,100021.09
2022-11-04T02:57:48.708Z,100019.44
2022-11-04T03:00:21.514Z,100029.03
2022-11-04T03:03:11.060Z,100025.75
2022-11-04T03:05:48.801Z,100035.50
2022-11-04T03:08:35.584Z,100042.28
2022-11-04T03:11:20.329Z,100033.84
2022-11-04T03:14:05.710Z,100037.13
2022-11-04T03:17:15.915Z,100042.41
2022-11-04T03:20:04.546Z,100055.41
2022-11-04T03:22:37.883Z,100065.03
2022-11-04T03:25:10.597Z,100071.28
2022-11-04T03:28:04.925Z,100068.88
2022-11-04T03:30:45.998Z,100069.50
2022-11-04T03:33:48.977Z,100046.06
2022-11-04T03:36:23.843Z,100044.06
2022-11-04T03:38:55.864Z,100057.88
2022-11-04T03:41:45.126Z,100062.25
2022-11-04T03:44:17.145Z,100075.63
2022-11-04T03:46:51.675Z,100070.38
2022-11-04T03:49:24.867Z,100083.56
2022-11-04T03:51:58.815Z,100089.81
2022-11-04T03:54:35.645Z,100080.31
2022-11-04T03:57:54.756Z,100089.94
2022-11-04T04:00:34.318Z,100113.50
2022-11-04T04:03:44.338Z,100116.97
2022-11-04T04:06:24.250Z,100116.06
2022-11-04T04:09:22.972Z,100118.84
2022-11-04T04:12:14.477Z,100140.66
2022-11-04T04:14:57.132Z,100151.28
2022-11-04T04:17:41.700Z,100155.59
2022-11-04T04:20:19.095Z,100154.84
2022-11-04T04:23:40.051Z,100146.22
2022-11-04T04:26:32.244Z,100155.84
2022-11-04T04:29:07.449Z,100156.63
2022-11-04T04:31:50.024Z,100168.22
2022-11-04T04:34:33.056Z,100164.59
2022-11-04T04:37:31.338Z,100176.50
2022-11-04T04:40:24.971Z,100164.38
2022-11-04T04:43:15.940Z,100158.41
2022-11-04T04:45:54.246Z,100167.88
2022-11-04T04:48:26.279Z,100170.50
2022-11-04T04:51:02.418Z,100168.56
2022-11-04T04:53:34.304Z,100170.28
2022-11-04T04:56:06.345Z,100176.53
2022-11-04T04:58:38.275Z,100170.28
2022-11-04T05:01:10.603Z,100173.09
2022-11-04T05:03:45.273Z,100171.44
2022-11-04T05:06:17.735Z,100166.84
2022-11-04T05:08:49.632Z,100164.78
2022-11-04T05:11:26.161Z,100169.47
2022-11-04T05:13:59.229Z,100178.22
2022-11-04T05:16:31.206Z,100180.84
2022-11-04T05:19:03.131Z,100182.69
2022-11-04T05:21:35.683Z,100193.91
2022-11-04T05:24:07.754Z,100188.69
2022-11-04T05:26:39.710Z,100193.94
2022-11-04T05:29:12.646Z,100205.31
2022-11-04T05:31:44.714Z,100201.84
2022-11-04T05:34:16.823Z,100213.25
2022-11-04T05:36:48.854Z,100197.34
2022-11-04T05:39:20.995Z,100194.81
2022-11-04T05:41:52.911Z,100191.34
2022-11-04T05:44:24.882Z,100205.25
2022-11-04T05:46:56.793Z,100216.66
2022-11-04T05:49:28.682Z,100227.13
2022-11-04T05:52:00.712Z,100222.59
2022-11-04T05:54:32.602Z,100233.09
2022-11-04T05:57:04.545Z,100244.38
2022-11-04T05:59:36.482Z,100251.41
2022-11-04T06:02:08.673Z,100250.44
2022-11-04T06:04:40.792Z,100270.38
2022-11-04T06:07:13.449Z,100269.66
2022-11-04T06:09:45.353Z,100272.25
2022-11-04T06:12:17.358Z,100277.50
2022-11-04T06:14:49.307Z,100280.84
2022-11-04T06:17:22.791Z,100278.41
2022-11-04T06:19:54.725Z,100293.03
2022-11-04T06:22:26.984Z,100297.44
2022-11-04T06:24:58.881Z,100301.56
2022-11-04T06:27:30.822Z,100306.94
2022-11-04T06:30:02.852Z,100308.63
2022-11-04T06:32:34.823Z,100315.78
2022-11-04T06:35:09.101Z,100317.63
2022-11-04T06:37:41.125Z,100319.34
2022-11-04T06:40:13.406Z,100316.59
2022-11-04T06:42:45.341Z,100306.16
2022-11-04T06:45:17.457Z,100320.25
2022-11-04T06:47:49.399Z,100311.50
2022-11-04T06:50:22.128Z,100316.03
2022-11-04T06:52:54.107Z,100324.72
2022-11-04T06:55:26.300Z,100328.09
2022-11-04T06:57:58.291Z,100338.44
2022-11-04T07:00:30.216Z,100356.53
2022-11-04T07:03:02.538Z,100374.25
2022-11-04T07:05:34.728Z,100376.09
2022-11-04T07:08:06.939Z,100381.38
2022-11-04T07:10:39.084Z,100386.63
2022-11-04T07:13:11.158Z,100397.16
2022-11-04T07:15:43.199Z,100399.75
2022-11-04T07:18:15.142Z,100401.50
2022-11-04T07:20:47.768Z,100393.56
2022-11-04T07:23:19.750Z,100401.22
2022-11-04T07:25:51.758Z,100415.19
2022-11-04T07:28:23.739Z,100416.00
2022-11-04T07:30:58.597Z,100419.50
2022-11-04T07:33:30.570Z,100433.75
2022-11-04T07:36:10.368Z,100437.16
2022-11-04T07:38:42.332Z,100438.97
2022-11-04T07:41:15.407Z,100444.22
2022-11-04T07:43:52.027Z,100438.19
2022-11-04T07:46:23.999Z,100437.16
2022-11-04T07:49:00.632Z,100449.28
2022-11-04T07:51:32.784Z,100446.63
2022-11-04T07:54:04.965Z,100457.91
2022-11-04T07:56:36.871Z,100459.47
2022-11-04T07:59:08.784Z,100463.00
2022-11-04T08:01:40.734Z,100467.78
2022-11-04T08:04:12.916Z,100466.03
2022-11-04T08:06:44.994Z,100462.53
2022-11-04T08:09:17.021Z,100459.13
2022-11-04T08:11:49.666Z,100459.16
2022-11-04T08:14:21.585Z,100455.66
2022-11-04T08:16:53.552Z,100453.38
2022-11-04T08:19:25.574Z,100456.88
2022-11-04T08:21:57.524Z,100460.31
2022-11-04T08:24:29.547Z,100466.09
2022-11-04T08:27:02.075Z,100457.22
2022-11-04T08:29:35.047Z,100459.94
2022-11-04T08:32:08.244Z,100455.50
2022-11-04T08:34:40.354Z,100456.59
2022-11-04T08:37:16.820Z,100459.91
2022-11-04T08:39:48.799Z,100472.03
2022-11-04T08:42:20.708Z,100485.84
2022-11-04T08:44:52.728Z,100485.72
2022-11-04T08:47:24.643Z,100494.16
2022-11-04T08:49:56.591Z,100490.47
2022-11-04T08:52:28.532Z,100495.50
2022-11-04T08:55:00.611Z,100503.22
2022-11-04T08:57:32.585Z,100508.38
2022-11-04T09:00:06.647Z,100508.06
2022-11-04T09:02:38.613Z,100513.41
2022-11-04T09:05:10.576Z,100513.28
2022-11-04T09:07:43.046Z,100507.41
2022-11-04T09:10:15.035Z,100517.00
2022-11-04T09:12:47.212Z,100521.19
2022-11-04T09:15:19.135Z,100520.00
2022-11-04T09:17:51.061Z,100521.91
2022-11-04T09:20:23.039Z,100533.88
2022-11-04T09:22:56.517Z,100533.56
2022-11-04T09:25:30.134Z,100535.38
2022-11-04T09:28:02.148Z,100534.53
2022-11-04T09:30:34.457Z,100537.81
2022-11-04T09:33:06.551Z,100541.44
2022-11-04T09:35:38.618Z,100550.06
2022-11-04T09:38:10.519Z,100552.03
2022-11-04T09:40:42.477Z,100565.84
2022-11-04T09:43:57.852Z,100550.03
2022-11-04T09:46:33.218Z,100560.56
2022-11-04T09:49:09.037Z,100557.50
2022-11-04T09:51:57.968Z,100555.25
2022-11-04T09:54:49.023Z,100560.13
2022-11-04T09:57:21.110Z,100558.66
2022-11-04T09:59:53.768Z,100562.91
2022-11-04T10:02:51.372Z,100557.03
2022-11-04T10:05:39.793Z,100569.81
2022-11-04T10:08:45.792Z,100564.69
2022-11-04T10:11:37.995Z,100575.06
2022-11-04T10:14:43.870Z,100589.09
2022-11-04T10:17:43.463Z,100581.59
2022-11-04T10:20:33.617Z,100577.34
2022-11-04T10:23:23.192Z,100578.19
2022-11-04T10:26:25.373Z,100578.97
2022-11-04T10:29:04.724Z,100573.03
2022-11-04T10:31:39.044Z,100571.13
2022-11-04T10:34:48.733Z,100589.16
2022-11-04T10:37:20.936Z,100579.25
2022-11-04T10:40:17.253Z,100573.66
2022-11-04T10:42:50.129Z,100576.78
2022-11-04T10:45:31.463Z,100583.91
2022-11-04T10:48:27.777Z,100578.78
2022-11-04T10:51:00.497Z,100579.41
2022-11-04T10:53:33.249Z,100588.03
2022-11-04T10:56:24.058Z,100591.59
2022-11-04T10:58:57.130Z,100595.50
2022-11-04T11:01:35.670Z,100603.03
2022-11-04T11:04:09.189Z,100608.41
2022-11-04T11:06:41.516Z,100609.81
2022-11-04T11:09:28.793Z,100610.66
2022-11-04T11:12:49.996Z,100622.75
2022-11-04T11:15:25.378Z,100620.63
2022-11-04T11:18:21.234Z,100627.03
2022-11-04T11:21:12.098Z,100625.91
2022-11-04T11:23:48.515Z,100622.50
2022-11-04T11:26:30.202Z,100627.44
2022-11-04T11:29:04.201Z,100627.63
2022-11-04T11:31:40.939Z,100626.97
2022-11-04T11:34:22.794Z,100632.44
2022-11-04T11:36:57.067Z,100634.50
2022-11-04T11:39:32.775Z,100634.56
2022-11-04T11:42:16.813Z,100636.72
2022-11-04T11:44:53.140Z,100643.13
2022-11-04T11:47:30.828Z,100658.13
2022-11-04T11:50:20.943Z,100655.38
2022-11-04T11:52:53.191Z,100661.03
2022-11-04T11:55:36.269Z,100660.59
2022-11-04T12:01:43.096Z,100670.34
2022-11-04T12:10:50.996Z,100671.16
2022-11-04T12:13:32.796Z,100687.94
2022-11-04T12:16:42.393Z,100690.94
2022-11-04T12:19:48.347Z,100685.34
2022-11-04T12:22:55.624Z,100689.59
2022-11-04T12:25:50.943Z,100687.75
2022-11-04T12:28:51.404Z,100682.44
2022-11-04T12:31:59.977Z,100677.38
2022-11-04T12:34:46.407Z,100680.63
2022-11-04T12:37:48.833Z,100686.72
2022-11-04T12:40:28.346Z,100675.00
2022-11-04T12:43:22.899Z,100693.94
2022-11-04T12:46:30.645Z,100676.44
2022-11-04T12:49:45.525Z,100675.56
2022-11-04T12:52:38.533Z,100672.28
2022-11-04T12:55:28.292Z,100671.47
2022-11-04T12:58:31.428Z,100676.03
2022-11-04T13:01:15.641Z,100679.03
2022-11-04T13:03:55.510Z,100667.66
2022-11-04T13:06:32.474Z,100669.50
2022-11-04T13:09:37.010Z,100672.81
2022-11-04T13:12:18.101Z,100680.00
2022-11-04T13:15:04.712Z,100687.88
2022-11-04T13:17:40.197Z,100689.66
2022-11-04T13:20:15.293Z,100698.38
2022-11-04T13:22:52.038Z,100699.13
2022-11-04T13:25:31.451Z,100711.22
2022-11-04T13:28:04.170Z,100714.50
2022-11-04T13:31:02.791Z,100720.44
2022-11-04T13:33:55.401Z,100721.88
2022-11-04T13:36:48.601Z,100725.81
2022-11-04T13:39:26.432Z,100727.22
2022-11-04T13:42:19.885Z,100728.94
2022-11-04T13:44:57.141Z,100723.94
2022-11-04T13:47:55.808Z,100728.78
2022-11-04T13:50:37.198Z,100728.09
2022-11-04T13:53:11.757Z,100731.81
2022-11-04T13:55:52.838Z,100730.47
2022-11-04T13:58:27.277Z,100735.69
2022-11-04T14:01:26.425Z,100737.34
2022-11-04T14:04:13.602Z,100743.41
2022-11-04T14:06:56.360Z,100739.78
2022-11-04T14:09:43.515Z,100746.78
2022-11-04T14:12:17.200Z,100744.28
2022-11-04T14:15:04.720Z,100748.69
2022-11-04T14:17:36.610Z,100746.09
2022-11-04T14:20:29.939Z,100750.38
2022-11-04T14:23:06.459Z,100757.22
2022-11-04T14:25:44.408Z,100764.94
2022-11-04T14:28:24.271Z,100769.13
2022-11-04T14:31:16.979Z,100768.81
2022-11-04T14:33:57.400Z,100773.13
2022-11-04T14:36:42.160Z,100790.56
2022-11-04T14:39:14.144Z,100787.09
2022-11-04T14:41:59.880Z,100795.19
2022-11-04T14:44:48.051Z,100794.97
2022-11-04T14:47:33.216Z,100807.19
2022-11-04T14:50:09.333Z,100810.97
2022-11-04T14:52:52.143Z,100819.81
2022-11-04T14:55:32.347Z,100816.44
2022-11-04T14:58:26.333Z,100813.13
2022-11-04T15:01:03.692Z,100813.31
2022-11-04T15:06:47.021Z,100824.19
2022-11-04T15:09:40.947Z,100824.38
2022-11-04T15:12:36.766Z,100830.59
2022-11-04T15:15:36.449Z,100841.22
2022-11-04T15:18:28.488Z,100859.53
2022-11-04T15:21:04.549Z,100854.28
2022-11-04T15:23:47.413Z,100872.63
2022-11-04T15:26:31.748Z,100867.34
2022-11-04T15:29:11.695Z,100874.66
2022-11-04T15:32:04.745Z,100880.81
2022-11-04T15:34:37.466Z,100872.00
2022-11-04T15:37:12.485Z,100872.94
2022-11-04T15:39:48.082Z,100868.63
2022-11-04T15:42:43.799Z,100867.84
2022-11-04T15:45:39.572Z,100871.47
2022-11-04T15:48:40.650Z,100874.28
2022-11-04T15:51:25.961Z,100866.50
2022-11-04T15:54:05.396Z,100883.16
2022-11-04T15:56:49.795Z,100880.63
2022-11-04T15:59:35.111Z,100885.13
2022-11-04T16:02:25.249Z,100887.72
2022-11-04T16:05:12.471Z,100886.81
2022-11-04T16:07:47.660Z,100894.69
2022-11-04T16:10:36.459Z,100896.41
2022-11-04T16:13:14.649Z,100902.50
2022-11-04T16:15:49.298Z,100900.72
2022-11-04T16:18:26.681Z,100905.97
2022-11-04T16:21:04.249Z,100906.00
2022-11-04T16:23:46.509Z,100911.25
2022-11-04T16:26:26.836Z,100906.91
2022-11-04T16:28:59.882Z,100907.81
2022-11-04T16:31:37.319Z,100910.47
2022-11-04T16:34:13.800Z,100914.94
2022-11-04T16:36:45.754Z,100916.78
2022-11-04T16:39:17.766Z,100923.72
2022-11-04T16:41:49.787Z,100929.88
2022-11-04T16:44:24.283Z,100938.69
2022-11-04T16:46:57.272Z,100939.66
2022-11-04T16:49:29.325Z,100940.53
2022-11-04T16:52:03.292Z,100951.09
2022-11-04T16:54:35.388Z,100950.28
2022-11-04T16:57:11.874Z,100958.19
2022-11-04T16:59:44.166Z,100962.63
2022-11-04T17:02:28.349Z,100967.94
2022-11-04T17:05:00.518Z,100966.28
2022-11-04T17:07:51.707Z,100963.66
2022-11-04T17:10:28.027Z,100968.94
2022-11-04T17:12:59.978Z,100971.56
2022-11-04T17:15:32.211Z,100968.94
2022-11-04T17:18:04.233Z,100971.59
2022-11-04T17:20:36.251Z,100968.09
2022-11-04T17:23:12.622Z,100975.13
2022-11-04T17:25:45.428Z,100975.19
2022-11-04T17:28:17.460Z,100976.91
2022-11-04T17:30:49.558Z,100978.69
2022-11-04T17:33:21.812Z,100983.13
2022-11-04T17:35:54.440Z,100985.72
2022-11-04T17:38:26.420Z,100987.50
2022-11-04T17:41:16.994Z,100988.41
2022-11-04T17:44:00.681Z,100988.47
2022-11-04T17:46:35.157Z,100990.22
2022-11-04T17:49:20.008Z,100997.25
2022-11-04T17:51:57.381Z,100994.63
2022-11-04T17:54:30.565Z,101005.13
2022-11-04T17:57:02.607Z,100998.16
2022-11-04T17:59:36.953Z,100994.72
2022-11-04T18:02:09.343Z,101003.50
2022-11-04T18:04:41.476Z,101004.34
2022-11-04T18:07:13.517Z,100997.41
2022-11-04T18:09:45.442Z,101008.78
2022-11-04T18:12:35.867Z,101007.94
2022-11-04T18:15:12.921Z,101012.34
2022-11-04T18:17:46.313Z,101017.59
2022-11-04T18:20:18.332Z,101020.19
2022-11-04T18:22:50.435Z,101020.22
2022-11-04T18:25:22.451Z,101024.56
2022-11-04T18:27:54.570Z,101031.56
2022-11-04T18:30:26.898Z,101035.06
2022-11-04T18:32:58.922Z,101031.56
2022-11-04T18:35:30.948Z,101039.41
2022-11-04T18:38:02.899Z,101037.69
2022-11-04T18:40:34.899Z,101040.34
2022-11-04T18:43:09.039Z,101040.34
2022-11-04T18:45:41.574Z,101039.47
2022-11-04T18:48:13.607Z,101041.22
2022-11-04T18:50:45.592Z,101042.97
2022-11-04T18:53:21.658Z,101052.56
2022-11-04T18:56:07.931Z,101054.31
2022-11-04T18:58:40.521Z,101057.78
2022-11-04T19:01:26.082Z,101063.91
2022-11-04T19:03:58.439Z,101060.41
2022-11-04T19:06:35.331Z,101066.50
2022-11-04T19:09:44.838Z,101063.91
2022-11-04T19:12:22.060Z,101065.66
2022-11-04T19:14:54.332Z,101067.41
2022-11-04T19:17:26.613Z,101070.03
2022-11-04T19:19:58.631Z,101071.78
2022-11-04T19:22:30.825Z,101079.63
2022-11-04T19:25:02.800Z,101088.34
2022-11-04T19:27:34.825Z,101087.47
2022-11-04T19:30:07.928Z,101092.69
2022-11-04T19:32:40.184Z,101090.97
2022-11-04T19:35:12.352Z,101086.63
2022-11-04T19:37:44.490Z,101091.84
2022-11-04T19:40:16.526Z,101094.44
2022-11-04T19:43:10.268Z,101093.59
2022-11-04T19:45:45.595Z,101104.91
2022-11-04T19:48:19.828Z,101115.34
2022-11-04T19:50:52.156Z,101109.25
2022-11-04T19:53:24.448Z,101106.66
2022-11-04T19:55:59.385Z,101103.16
2022-11-04T19:58:31.518Z,101113.63
2022-11-04T20:01:08.395Z,101111.00
2022-11-04T20:03:41.226Z,101119.72
2022-11-04T20:06:16.630Z,101123.19
2022-11-04T20:08:49.059Z,101122.31
2022-11-04T20:11:21.259Z,101131.91
2022-11-04T20:13:53.352Z,101124.91
2022-11-04T20:16:31.587Z,101125.75
2022-11-04T20:19:05.048Z,101135.31
2022-11-04T20:21:37.478Z,101138.81
2022-11-04T20:24:13.063Z,101142.28
2022-11-04T20:26:47.066Z,101149.22
2022-11-04T20:29:19.172Z,101150.94
2022-11-04T20:31:51.086Z,101153.53
2022-11-04T20:34:23.167Z,101158.75
2022-11-04T20:36:58.544Z,101170.09
2022-11-04T20:39:36.133Z,101176.19
2022-11-04T20:42:08.325Z,101168.31
2022-11-04T20:44:40.725Z,101171.78
2022-11-04T20:47:12.616Z,101170.06
2022-11-04T20:49:45.211Z,101175.25
2022-11-04T20:52:17.398Z,101177.00
2022-11-04T20:54:49.412Z,101180.47
2022-11-04T20:57:21.747Z,101190.03
2022-11-04T20:59:59.371Z,101197.88
2022-11-04T21:02:31.735Z,101212.69
2022-11-04T21:05:04.163Z,101203.97
2022-11-04T21:07:37.045Z,101204.84
2022-11-04T21:10:09.426Z,101211.81
2022-11-04T21:12:41.527Z,101202.25
2022-11-04T21:15:33.578Z,101215.31
2022-11-04T21:18:05.787Z,101217.03
2022-11-04T21:20:42.666Z,101223.13
2022-11-04T21:23:16.326Z,101225.72
2022-11-04T21:25:53.980Z,101223.09
2022-11-04T21:28:26.513Z,101223.09
2022-11-04T21:31:05.170Z,101232.66
2022-11-04T21:33:38.230Z,101232.66
2022-11-04T21:36:12.545Z,101236.13
2022-11-04T21:38:45.450Z,101241.31
2022-11-04T21:41:25.364Z,101246.53
2022-11-04T21:43:59.600Z,101253.50
2022-11-04T21:46:33.652Z,101257.84
2022-11-04T21:49:06.423Z,101251.72
2022-11-04T21:51:38.460Z,101248.22
2022-11-04T21:54:11.179Z,101253.47
2022-11-04T21:56:43.206Z,101257.81
2022-11-04T21:59:18.750Z,101254.34
2022-11-04T22:01:50.859Z,101260.44
2022-11-04T22:04:22.903Z,101260.44
2022-11-04T22:06:54.937Z,101267.38
2022-11-04T22:09:26.893Z,101268.25
2022-11-04T22:11:59.023Z,101270.00
2022-11-04T22:14:31.093Z,101275.22
2022-11-04T22:17:03.102Z,101263.91
2022-11-04T22:19:35.025Z,101266.50
2022-11-04T22:22:07.055Z,101268.25
2022-11-04T22:24:39.151Z,101268.22
2022-11-04T22:27:11.174Z,101268.19
2022-11-04T22:29:43.220Z,101275.13
2022-11-04T22:32:15.415Z,101269.00
2022-11-04T22:34:47.390Z,101273.34
2022-11-04T22:37:19.397Z,101276.84
2022-11-04T22:39:51.448Z,101279.44
2022-11-04T22:42:23.482Z,101275.09
2022-11-04T22:44:55.524Z,101272.44
2022-11-04T22:47:27.897Z,101282.00
2022-11-04T22:49:59.888Z,101281.97
2022-11-04T22:52:31.873Z,101283.69
2022-11-04T22:55:04.032Z,101289.72
2022-11-04T22:57:36.190Z,101294.91
2022-11-04T23:00:10.631Z,101296.63
2022-11-04T23:02:42.805Z,101293.94
2022-11-04T23:05:16.165Z,101298.22
2022-11-04T23:07:48.373Z,101295.56
2022-11-04T23:10:39.157Z,101304.22
2022-11-04T23:13:29.636Z,101307.66
2022-11-04T23:16:20.305Z,101304.16
2022-11-04T23:18:52.699Z,101302.44
2022-11-04T23:21:43.548Z,101315.41
2022-11-04T23:24:34.333Z,101307.66
2022-11-04T23:27:07.141Z,101313.75
2022-11-04T23:29:57.944Z,101319.91
2022-11-04T23:32:29.866Z,101316.47
2022-11-04T23:35:20.291Z,101312.97
2022-11-04T23:37:57.216Z,101312.09
2022-11-04T23:40:31.839Z,101319.03
2022-11-04T23:43:03.932Z,101320.72
2022-11-04T23:45:54.542Z,101321.56
2022-11-04T23:48:45.144Z,101327.63
2022-11-04T23:51:35.649Z,101330.16
2022-11-04T23:54:27.414Z,101327.50
2022-11-04T23:57:17.976Z,101338.75
